Time;durP1;ratioP1;P1;durP2;ratioP2;P2;SDS_P1;SDS_P2;PMS_P1;PMS_P2;Temp;Humidity;BMP_temperature;BMP_pressure;BME280_temperature;BME280_humidity;BME280_pressure;Samples;Min_cycle;Max_cycle;Signal;HPM_P1;HPM_P2
2022/05/04 00:00:09;;;;;;;;;;;9.90;1.40;;;11.10;100.00;95276.23;654316;216;25228;-73
2022/05/04 00:02:50;;;;;;;;;;;9.90;1.40;;;11.06;100.00;95279.36;653870;215;24835;-73
2022/05/04 00:05:31;;;;;;;;;;;9.90;1.40;;;11.06;100.00;95278.13;653700;212;24834;-73
2022/05/04 00:08:13;;;;;;;;;;;9.90;1.40;;;11.09;100.00;95278.05;646816;216;24878;-73
2022/05/04 00:10:54;;;;;;;;;;;10.00;1.40;;;11.17;100.00;95275.52;652661;213;25374;-73
2022/05/04 00:13:39;;;;;;;;;;;10.00;1.40;;;11.19;100.00;95277.53;649183;216;25112;-73
2022/05/04 00:16:20;;;;;;;;;;;9.90;1.40;;;11.02;100.00;95277.03;654457;212;24849;-73
2022/05/04 00:19:01;;;;;;;;;;;9.80;1.40;;;11.06;100.00;95275.50;654352;216;24754;-74
2022/05/04 00:21:43;;;;;;;;;;;9.80;1.40;;;11.10;100.00;95273.56;653628;216;24746;-73
2022/05/04 00:24:24;;;;;;;;;;;9.90;1.40;;;11.07;100.00;95272.39;646774;216;25224;-72
2022/05/04 00:27:05;;;;;;;;;;;9.80;1.40;;;11.10;100.00;95276.39;653561;216;24748;-74
2022/05/04 00:29:53;;;;;;;;;;;9.80;1.40;;;11.06;100.00;95279.09;652864;212;24733;-74
2022/05/04 00:32:41;;;;;;;;;;;9.80;1.40;;;11.09;100.00;95277.92;652479;216;24823;-73
2022/05/04 00:35:50;;;;;;;1.30;1.20;;;9.80;1.40;;;11.12;100.00;95271.41;618622;225;31902;-73
2022/05/04 00:38:32;;;;;;;1.57;0.90;;;9.80;1.40;;;11.14;100.00;95273.78;647162;216;31575;-74
2022/05/04 00:41:14;;;;;;;2.80;0.70;;;9.80;1.40;;;11.15;100.00;95277.92;618371;226;31871;-73
2022/05/04 00:44:01;;;;;;;;;;;9.80;1.40;;;11.18;100.00;95281.84;652825;216;24888;-74
2022/05/04 00:46:49;;;;;;;;;;;9.90;1.40;;;11.22;100.00;95283.30;652743;216;24903;-73
2022/05/04 00:49:30;;;;;;;;;;;9.90;1.40;;;11.19;100.00;95280.39;653829;216;24813;-74
2022/05/04 00:52:13;;;;;;;;;;;9.80;1.40;;;11.21;100.00;95281.93;653076;216;24834;-72
2022/05/04 00:54:53;;;;;;;;;;;9.80;1.40;;;11.21;100.00;95278.67;653493;216;24753;-73
2022/05/04 01:00:23;;;;;;;;;;;9.80;1.40;;;11.25;100.00;95278.50;654220;216;24850;-73
2022/05/04 01:03:04;;;;;;;;;;;9.90;1.40;;;11.17;100.00;95285.22;652997;216;24818;-73
2022/05/04 01:05:45;;;;;;;;;;;9.80;1.40;;;11.12;100.00;95283.70;653763;212;24874;-74
2022/05/04 01:08:30;;;;;;;;;;;9.70;1.40;;;11.15;100.00;95286.78;644251;216;24861;-74
2022/05/04 01:11:11;;;;;;;;;;;9.70;1.40;;;11.05;100.00;95287.30;622757;224;24888;-74
2022/05/04 01:14:02;;;;;;;;;;;9.60;1.40;;;11.00;100.00;95289.77;652550;216;24816;-73
2022/05/04 01:16:45;;;;;;;;;;;9.60;1.40;;;10.89;100.00;95288.23;653650;212;24888;-75
2022/05/04 01:19:27;;;;;;;;;;;9.60;1.40;;;10.82;100.00;95289.17;652817;216;24841;-74
2022/05/04 01:22:09;;;;;;;;;;;9.50;1.40;;;10.81;100.00;95292.63;653077;216;24824;-73
2022/05/04 01:24:50;;;;;;;;;;;9.50;1.40;;;10.77;100.00;95289.48;654333;212;24827;-75
2022/05/04 01:27:34;;;;;;;;;;;9.50;1.40;;;10.73;100.00;95291.44;648903;215;24847;-74
2022/05/04 01:30:16;;;;;;;;;;;9.40;1.40;;;10.71;100.00;95291.48;648278;215;24819;-74
2022/05/04 01:32:57;;;;;;;;;;;9.40;1.40;;;10.70;100.00;95292.42;654177;216;24828;-73
2022/05/04 01:35:50;;;;;;;1.20;1.10;;;9.40;1.40;;;10.69;100.00;95290.39;621061;226;31832;-74
2022/05/04 01:38:32;;;;;;;1.50;1.40;;;9.40;1.40;;;10.64;100.00;95289.00;647665;212;32070;-74
2022/05/04 01:44:00;;;;;;;;;;;9.30;1.40;;;10.51;100.00;95289.41;653809;212;24833;-74
2022/05/04 01:46:45;;;;;;;;;;;9.30;1.40;;;10.45;100.00;95290.36;655608;212;24739;-74
2022/05/04 01:49:26;;;;;;;;;;;9.30;1.40;;;10.38;100.00;95284.97;653331;216;24909;-72
2022/05/04 01:52:08;;;;;;;;;;;9.20;1.40;;;10.37;100.00;95287.45;654510;216;25243;-73
2022/05/04 01:54:50;;;;;;;;;;;9.10;1.40;;;10.33;100.00;95281.47;653654;216;24821;-73
2022/05/04 01:57:31;;;;;;;;;;;9.10;1.40;;;10.30;100.00;95282.98;652754;212;24830;-74
2022/05/04 02:00:15;;;;;;;;;;;9.10;1.40;;;10.31;100.00;95282.05;654189;216;24858;-73
2022/05/04 02:02:57;;;;;;;;;;;9.00;1.40;;;10.24;100.00;95278.00;653469;212;24705;-72
2022/05/04 02:05:41;;;;;;;;;;;9.00;1.40;;;10.22;100.00;95279.74;654270;216;25221;-73
2022/05/04 02:08:23;;;;;;;;;;;8.90;1.40;;;10.25;100.00;95273.52;644905;212;24843;-72
2022/05/04 02:11:04;;;;;;;;;;;9.00;1.40;;;10.18;100.00;95273.34;654835;216;24722;-72
2022/05/04 02:13:45;;;;;;;;;;;8.90;1.40;;;10.24;100.00;95271.33;654973;216;25301;-75
2022/05/04 02:16:30;;;;;;;;;;;9.00;1.40;;;10.20;100.00;95269.03;652894;216;24863;-72
2022/05/04 02:19:11;;;;;;;;;;;9.00;1.40;;;10.19;100.00;95265.25;655598;216;25243;-72
2022/05/04 02:21:55;;;;;;;;;;;9.00;1.40;;;10.22;100.00;95263.75;622175;226;24883;-73
2022/05/04 02:24:36;;;;;;;;;;;9.10;1.40;;;10.34;100.00;95270.91;654756;216;24860;-73
2022/05/04 02:27:18;;;;;;;;;;;9.10;1.40;;;10.14;100.00;95276.75;654613;212;25455;-72
2022/05/04 02:29:59;;;;;;;;;;;8.90;1.40;;;10.05;100.00;95270.25;653589;216;25128;-73
2022/05/04 02:32:40;;;;;;;;;;;8.80;1.40;;;10.06;100.00;95266.91;649381;217;24826;-73
2022/05/04 02:38:38;;;;;;;1.80;1.10;;;8.80;1.40;;;10.08;100.00;95265.63;647593;212;31532;-75
2022/05/04 02:41:20;;;;;;;1.70;0.80;;;8.80;1.40;;;10.06;100.00;95264.73;648100;216;31518;-72
2022/05/04 02:44:02;;;;;;;1.20;0.77;;;8.90;1.40;;;10.01;100.00;95264.60;646902;212;31518;-74
2022/05/04 02:46:44;;;;;;;0.70;0.50;;;8.80;1.40;;;10.06;100.00;95265.08;647094;216;31535;-74
2022/05/04 02:49:25;;;;;;;1.58;0.70;;;8.90;1.40;;;10.03;100.00;95263.92;647408;216;31522;-74
2022/05/04 02:52:07;;;;;;;0.90;0.80;;;8.80;1.40;;;10.16;100.00;95268.48;620344;226;32620;-74
2022/05/04 02:54:49;;;;;;;0.80;0.80;;;8.80;1.40;;;10.11;100.00;95265.94;645759;216;31523;-73
2022/05/04 02:59:17;;;;;;;1.10;0.80;;;8.80;1.40;;;10.16;100.00;95266.09;646217;216;31469;-72
2022/05/04 03:07:20;;;;;;;1.33;0.97;;;8.90;1.40;;;10.11;100.00;95266.53;644507;216;31770;-72
2022/05/04 03:10:02;;;;;;;1.07;0.97;;;8.90;1.40;;;10.10;100.00;95266.16;646575;216;42182;-72
2022/05/04 03:12:43;;;;;;;;;;;8.90;1.40;;;10.13;100.00;95265.78;653455;212;24816;-74
2022/05/04 03:15:28;;;;;;;;;;;8.90;1.40;;;10.16;100.00;95261.58;653188;216;24933;-75
2022/05/04 03:18:11;;;;;;;;;;;8.90;1.40;;;10.17;100.00;95267.20;648746;216;25081;-74
2022/05/04 03:20:59;;;;;;;;;;;8.90;1.40;;;10.21;100.00;95266.11;654309;216;24715;-74
2022/05/04 03:23:40;;;;;;;;;;;9.00;1.40;;;10.26;100.00;95265.91;653763;212;24935;-74
2022/05/04 03:26:24;;;;;;;;;;;9.00;1.40;;;10.24;100.00;95260.91;652968;216;24930;-75
2022/05/04 03:29:03;;;;;;;;;;;9.00;1.40;;;10.20;100.00;95260.89;653301;216;24744;-72
2022/05/04 03:31:45;;;;;;;;;;;9.00;1.40;;;10.23;100.00;95254.38;652441;216;24798;-73
2022/05/04 03:35:52;;;;;;;1.20;1.00;;;9.00;1.40;;;10.34;100.00;95256.79;619347;226;31869;-72
2022/05/04 03:38:33;;;;;;;1.10;1.00;;;9.10;1.40;;;10.33;100.00;95259.08;647449;216;31540;-72
2022/05/04 03:41:15;;;;;;;1.30;0.50;;;9.10;1.40;;;10.40;100.00;95260.04;647895;216;31527;-73
2022/05/04 03:43:57;;;;;;;1.30;1.00;;;9.10;1.40;;;10.30;100.00;95260.30;647021;212;31509;-73
2022/05/04 03:46:44;;;;;;;0.70;0.70;;;8.90;1.40;;;10.17;100.00;95259.50;646522;216;31501;-73
2022/05/04 03:49:26;;;;;;;0.90;0.50;;;8.90;1.40;;;10.15;100.00;95256.74;645868;216;32126;-73
2022/05/04 03:52:09;;;;;;;1.30;1.20;;;8.90;1.40;;;10.16;100.00;95260.66;646829;216;31760;-72
2022/05/04 03:54:50;;;;;;;1.70;0.80;;;8.90;1.40;;;10.19;100.00;95266.29;646915;216;31569;-72
2022/05/04 03:57:32;;;;;;;4.40;0.77;;;8.90;1.40;;;10.26;100.00;95263.24;648219;216;31588;-72
2022/05/04 04:00:14;;;;;;;1.20;0.80;;;9.00;1.40;;;10.29;100.00;95265.73;648234;212;42294;-73
2022/05/04 04:02:59;;;;;;;1.30;1.20;;;9.00;1.40;;;10.36;100.00;95271.80;647280;216;42158;-73
2022/05/04 04:05:41;;;;;;;0.60;0.50;;;9.10;1.40;;;10.37;100.00;95272.30;618590;225;31934;-73
2022/05/04 04:08:22;;;;;;;0.70;0.50;;;9.10;1.40;;;10.37;100.00;95272.86;639098;216;42331;-72
2022/05/04 04:11:04;;;;;;;1.20;1.10;;;9.10;1.40;;;10.45;100.00;95271.17;647471;216;31512;-72
2022/05/04 04:13:49;;;;;;;1.30;1.10;;;9.10;1.40;;;10.42;100.00;95272.88;647309;216;32081;-74
2022/05/04 04:16:30;;;;;;;0.83;0.83;;;9.10;1.40;;;10.48;100.00;95272.12;646643;212;32098;-72
2022/05/04 04:19:12;;;;;;;0.70;0.50;;;9.10;1.40;;;10.42;100.00;95273.16;647244;216;31962;-73
2022/05/04 04:21:54;;;;;;;;;;;9.10;1.40;;;10.49;100.00;95273.95;653723;216;24834;-75
2022/05/04 04:24:35;;;;;;;;;;;9.10;1.40;;;10.41;100.00;95278.26;653823;212;25106;-74
2022/05/04 04:27:19;;;;;;;;;;;9.10;1.40;;;10.37;100.00;95274.26;652039;216;24789;-72
2022/05/04 04:30:00;;;;;;;;;;;9.10;1.40;;;10.35;100.00;95270.94;652944;212;24769;-73
2022/05/04 04:32:42;;;;;;;;;;;9.10;1.40;;;10.32;100.00;95270.37;653953;212;24772;-74
2022/05/04 04:35:52;;;;;;;;;;;9.20;1.40;;;10.38;100.00;95271.05;653509;212;24817;-73
2022/05/04 04:38:33;;;;;;;;;;;9.20;1.40;;;10.39;100.00;95272.97;653337;212;24816;-73
2022/05/04 04:41:16;;;;;;;;;;;9.20;1.40;;;10.40;100.00;95273.05;649140;217;24816;-74
2022/05/04 04:43:57;;;;;;;;;;;9.20;1.40;;;10.47;100.00;95275.78;649886;216;24771;-74
2022/05/04 04:46:38;;;;;;;;;;;9.20;1.40;;;10.37;100.00;95275.83;653287;216;24943;-73
2022/05/04 04:49:20;;;;;;;;;;;9.10;1.40;;;10.31;100.00;95276.63;653180;216;24825;-73
2022/05/04 04:52:02;;;;;;;;;;;9.20;1.40;;;10.26;100.00;95278.75;647150;217;24830;-74
2022/05/04 04:54:44;;;;;;;;;;;9.10;1.40;;;10.26;100.00;95282.27;649458;216;25435;-74
2022/05/04 04:57:30;;;;;;;;;;;9.10;1.40;;;10.24;100.00;95283.36;652763;216;24873;-73
2022/05/04 05:00:17;;;;;;;;;;;9.10;1.40;;;10.23;100.00;95285.33;652924;212;24922;-75
2022/05/04 05:02:58;;;;;;;;;;;9.10;1.40;;;10.22;100.00;95287.59;653025;216;24820;-73
2022/05/04 05:05:41;;;;;;;;;;;9.10;1.40;;;10.23;100.00;95288.47;654686;212;24822;-78
2022/05/04 05:08:28;;;;;;;;;;;9.10;1.40;;;10.28;100.00;95287.38;648684;216;24780;-73
2022/05/04 05:11:10;;;;;;;;;;;9.10;1.40;;;10.30;100.00;95291.98;653481;216;24806;-72
2022/05/04 05:16:38;;;;;;;;;;;9.10;1.40;;;10.38;100.00;95289.24;652463;212;24882;-71
2022/05/04 05:19:19;;;;;;;;;;;9.10;1.40;;;10.49;100.00;95289.25;652333;216;25307;-74
2022/05/04 05:22:04;;;;;;;;;;;9.20;1.40;;;10.61;100.00;95291.14;653016;216;25419;-72
2022/05/04 05:24:46;;;;;;;;;;;9.30;1.40;;;10.58;100.00;95293.08;649395;216;24843;-72
2022/05/04 05:27:31;;;;;;;;;;;9.30;1.40;;;10.71;100.00;95294.73;622158;226;24905;-72
2022/05/04 05:30:13;;;;;;;;;;;9.40;1.40;;;10.71;100.00;95298.17;652305;216;24778;-71
2022/05/04 05:32:54;;;;;;;;;;;9.40;1.40;;;10.73;100.00;95296.60;652865;212;24811;-71
2022/05/04 05:35:50;;;;;;;;;;;9.50;1.40;;;10.82;100.00;95294.49;652634;216;24815;-72
2022/05/04 05:38:31;;;;;;;;;;;9.60;1.40;;;10.92;100.00;95300.80;653184;216;24742;-72
2022/05/04 05:41:13;;;;;;;;;;;9.80;1.40;;;11.05;100.00;95299.40;653719;216;24893;-72
2022/05/04 05:43:54;;;;;;;;;;;9.90;1.40;;;11.00;100.00;95302.80;637231;221;25335;-71
2022/05/04 05:46:35;;;;;;;;;;;9.90;1.40;;;11.07;100.00;95310.84;653014;216;24837;-72
2022/05/04 05:49:16;;;;;;;;;;;10.00;1.40;;;11.19;100.00;95309.44;654051;216;24819;-71
2022/05/04 05:51:58;;;;;;;;;;;10.10;1.40;;;11.25;100.00;95314.11;652258;212;24747;-73
2022/05/04 05:54:39;;;;;;;;;;;10.20;1.40;;;11.37;100.00;95317.02;653365;216;24862;-72
2022/05/04 05:57:23;;;;;;;;;;;10.40;1.40;;;11.44;100.00;95323.94;652595;212;24744;-72
2022/05/04 06:00:05;;;;;;;;;;;10.50;1.40;;;11.62;100.00;95326.67;653282;216;24964;-71
2022/05/04 06:02:47;;;;;;;;;;;10.60;1.40;;;11.58;100.00;95325.86;648795;214;25166;-72
2022/05/04 06:05:31;;;;;;;;;;;10.60;1.40;;;11.61;100.00;95325.55;652330;212;24989;-71
2022/05/04 06:08:12;;;;;;;;;;;10.60;1.40;;;11.71;100.00;95333.94;648814;216;24951;-72
2022/05/04 06:10:54;;;;;;;;;;;10.60;1.40;;;11.76;100.00;95329.98;653957;216;24740;-71
2022/05/04 06:13:35;;;;;;;;;;;10.70;1.40;;;11.91;100.00;95334.52;651470;216;25347;-72
2022/05/04 06:16:16;;;;;;;;;;;10.80;1.40;;;12.04;100.00;95336.14;651816;212;24815;-71
2022/05/04 06:18:58;;;;;;;;;;;10.80;1.40;;;12.16;100.00;95337.23;653544;216;24843;-72
2022/05/04 06:21:39;;;;;;;;;;;11.00;1.40;;;12.31;100.00;95333.07;653087;216;24735;-71
2022/05/04 06:24:24;;;;;;;;;;;11.10;1.40;;;12.44;100.00;95336.45;647599;217;24740;-72
2022/05/04 06:27:05;;;;;;;;;;;11.20;1.40;;;12.54;100.00;95342.33;652975;212;24732;-72
2022/05/04 06:35:51;;;;;;;1.52;1.10;;;11.50;1.40;;;13.01;100.00;95347.09;647333;212;31530;-72
2022/05/04 06:38:32;;;;;;;0.80;0.50;;;11.60;1.40;;;13.32;100.00;95350.74;645613;212;42200;-72
2022/05/04 06:41:14;;;;;;;0.80;0.50;;;11.90;1.40;;;13.60;100.00;95358.19;645355;216;31578;-71
2022/05/04 06:43:56;;;;;;;0.70;0.70;;;12.10;1.40;;;13.73;100.00;95359.20;645665;216;32018;-71
2022/05/04 06:46:41;;;;;;;0.65;0.40;;;12.30;1.40;;;13.85;100.00;95360.47;646301;216;31678;-72
2022/05/04 06:49:20;;;;;;;0.40;0.30;;;12.50;1.40;;;13.89;100.00;95362.50;645735;216;31472;-72
2022/05/04 06:52:01;;;;;;;0.70;0.57;;;12.50;1.40;;;14.09;100.00;95363.39;647184;216;31765;-73
2022/05/04 06:54:43;;;;;;;0.60;0.60;;;12.60;1.40;;;14.30;100.00;95366.88;646051;216;31525;-71
2022/05/04 06:57:25;;;;;;;0.68;0.57;;;12.70;1.40;;;14.37;100.00;95365.27;645430;216;42151;-71
2022/05/04 07:00:07;;;;;;;3.70;0.70;;;12.90;1.40;;;14.52;100.00;95366.16;617837;226;42521;-72
2022/05/04 07:02:49;;;;;;;1.42;0.73;;;12.90;1.40;;;14.56;100.00;95373.38;645604;212;31486;-72
2022/05/04 07:05:34;;;;;;;0.80;0.77;;;13.00;1.40;;;14.61;100.00;95378.00;646464;216;41555;-72
2022/05/04 07:08:15;;;;;;;1.40;0.85;;;13.00;1.40;;;14.93;100.00;95368.23;643069;212;31700;-71
2022/05/04 07:10:57;;;;;;;0.62;0.62;;;13.10;1.40;;;14.98;100.00;95366.05;618274;226;31850;-72
2022/05/04 07:13:41;;;;;;;0.50;0.40;;;13.20;1.40;;;15.07;100.00;95370.33;646730;216;34970;-72
2022/05/04 07:16:20;;;;;;;0.62;0.50;;;13.30;1.40;;;15.06;100.00;95370.00;646118;216;31810;-72
2022/05/04 07:19:02;;;;;;;1.00;0.70;;;13.30;1.40;;;15.15;100.00;95363.31;645960;216;31565;-72
2022/05/04 07:21:45;;;;;;;1.60;0.62;;;13.60;1.40;;;15.45;100.00;95367.75;646940;212;31474;-73
2022/05/04 07:24:26;;;;;;;0.85;0.55;;;13.70;1.40;;;15.57;100.00;95370.70;617521;226;31824;-72
2022/05/04 07:27:07;;;;;;;1.40;0.70;;;13.70;1.40;;;15.47;100.00;95368.59;618797;226;31886;-72
2022/05/04 07:29:49;;;;;;;1.40;0.60;;;13.60;1.40;;;15.38;100.00;95368.86;645824;212;31463;-72
2022/05/04 07:32:31;;;;;;;0.90;0.60;;;13.60;1.40;;;15.69;100.00;95371.42;619030;226;32475;-72
2022/05/04 07:35:54;;;;;;;1.10;0.80;;;13.90;1.40;;;15.90;100.00;95370.72;645915;212;42058;-73
2022/05/04 07:38:36;;;;;;;0.60;0.60;;;14.10;1.40;;;16.12;100.00;95367.64;646449;216;31482;-72
2022/05/04 07:44:05;;;;;;;1.35;0.98;;;14.80;1.40;;;16.34;100.00;95368.02;618884;226;31883;-73
2022/05/04 07:46:48;;;;;;;1.00;0.80;;;14.60;1.40;;;16.57;100.00;95371.08;647047;216;31480;-73
2022/05/04 07:49:29;;;;;;;1.00;0.90;;;14.80;1.40;;;16.84;100.00;95373.33;645202;212;31494;-72
2022/05/04 07:52:10;;;;;;;0.70;0.70;;;14.90;1.40;;;16.53;100.00;95371.64;646065;216;32791;-72
2022/05/04 07:54:52;;;;;;;1.10;1.00;;;14.70;1.40;;;16.68;100.00;95376.03;646252;212;31615;-73
2022/05/04 07:57:37;;;;;;;0.88;0.80;;;15.00;1.40;;;16.98;100.00;95380.27;646138;216;31468;-73
2022/05/04 08:05:43;;;;;;;1.30;0.80;;;15.20;1.40;;;17.49;100.00;95374.63;618984;226;31854;-73
2022/05/04 08:08:26;;;;;;;2.30;0.93;;;15.50;1.40;;;17.50;100.00;95377.27;642645;216;31639;-73
2022/05/04 08:11:08;;;;;;;1.10;1.00;;;15.50;1.40;;;18.08;100.00;95375.64;645860;216;31533;-73
2022/05/04 08:16:24;;;;;;;1.00;0.80;;;15.90;1.40;;;18.21;100.00;95381.05;646999;216;42176;-73
2022/05/04 08:19:07;;;;;;;1.10;0.80;;;16.00;1.40;;;18.31;100.00;95384.05;646034;216;31536;-73
2022/05/04 08:21:48;;;;;;;0.70;0.60;;;16.20;1.40;;;17.75;100.00;95385.63;618100;222;31866;-72
2022/05/04 08:24:30;;;;;;;0.85;0.85;;;15.80;1.40;;;18.01;100.00;95386.67;648081;216;31559;-73
2022/05/04 08:27:11;;;;;;;0.90;0.90;;;15.90;1.40;;;17.88;100.00;95384.75;619140;226;31854;-73
2022/05/04 08:29:56;;;;;;;2.05;1.10;;;15.70;1.40;;;17.90;100.00;95387.84;646950;216;31842;-73
2022/05/04 08:32:38;;;;;;;1.67;1.58;;;15.90;1.40;;;18.29;100.00;95388.13;646869;216;31583;-73
2022/05/04 08:35:51;;;;;;;1.00;0.90;;;16.20;1.40;;;18.72;100.00;95388.34;620225;222;32584;-73
2022/05/04 08:38:36;;;;;;;1.48;1.27;;;16.60;1.40;;;18.51;98.52;95392.23;645839;216;31559;-72
2022/05/04 08:41:17;;;;;;;1.27;1.17;;;16.10;1.40;;;19.01;98.71;95392.30;646121;216;31466;-73
2022/05/04 08:43:59;;;;;;;1.70;1.30;;;16.60;1.40;;;18.52;100.00;95392.86;645839;216;31587;-72
2022/05/04 08:46:44;;;;;;;1.67;1.30;;;16.30;1.40;;;18.46;100.00;95396.06;646813;216;42810;-73
2022/05/04 08:49:30;;;;;;;1.95;1.48;;;16.30;1.40;;;18.71;100.00;95390.93;646718;216;31668;-73
2022/05/04 08:52:10;;;;;;;2.53;1.80;;;16.70;1.40;;;18.96;100.00;95390.19;646636;216;31579;-73
2022/05/04 08:54:52;;;;;;;2.30;1.58;;;17.00;1.40;;;19.51;100.00;95394.78;647244;216;42311;-73
2022/05/04 08:57:33;;;;;;;1.77;1.67;;;17.00;1.40;;;19.45;100.00;95395.58;646200;216;31533;-74
2022/05/04 09:00:15;;;;;;;2.60;1.58;;;17.30;1.40;;;20.01;100.00;95388.34;647511;216;31494;-74
2022/05/04 09:02:57;;;;;;;1.55;1.45;;;17.60;1.40;;;19.75;100.00;95393.94;647046;216;31610;-73
2022/05/04 09:05:40;;;;;;;1.50;1.23;;;17.30;1.40;;;19.95;97.59;95390.39;645514;216;31641;-74
2022/05/04 09:08:23;;;;;;;1.90;1.58;;;17.60;1.40;;;19.55;98.75;95386.20;642937;216;31802;-73
2022/05/04 09:11:04;;;;;;;2.45;1.50;;;17.50;1.40;;;20.26;91.52;95385.77;645591;212;31868;-73
2022/05/04 09:13:47;;;;;;;1.92;1.70;;;18.10;1.40;;;20.38;88.74;95385.95;618935;225;32330;-74
2022/05/04 09:16:30;;;;;;;2.17;1.30;;;18.40;1.40;;;20.70;89.06;95385.59;646366;216;32084;-73
2022/05/04 09:19:11;;;;;;;1.90;1.50;;;18.90;1.40;;;21.09;83.03;95383.20;646967;216;32234;-74
2022/05/04 09:21:53;;;;;;;2.33;1.80;;;18.80;1.40;;;20.68;81.09;95382.04;646348;216;35665;-73
2022/05/04 09:24:35;;;;;;;2.42;2.20;;;17.90;1.40;;;20.38;90.29;95375.34;646618;216;31622;-73
2022/05/04 09:29:51;;;;;;;1.70;1.58;;;18.50;1.40;;;20.84;76.69;95376.22;645914;212;31509;-74
2022/05/04 09:32:32;;;;;;;2.90;1.30;;;19.60;1.40;;;21.12;77.53;95377.25;646888;216;31560;-73
2022/05/04 09:35:50;;;;;;;1.60;1.40;;;21.60;1.40;;;21.13;77.43;95377.61;646868;216;31678;-73
2022/05/04 09:46:58;;;;;;;1.45;1.08;;;22.20;1.40;;;21.98;65.88;95365.24;618123;226;31917;-73
2022/05/04 09:49:40;;;;;;;1.92;1.77;;;21.20;1.40;;;22.40;65.11;95358.50;646233;216;31584;-73
2022/05/04 09:52:22;;;;;;;1.50;1.27;;;21.30;1.40;;;22.92;62.24;95353.14;617870;225;32086;-74
2022/05/04 09:55:05;;;;;;;2.03;1.20;;;21.00;1.40;;;23.28;63.39;95352.31;647616;212;31553;-73
2022/05/04 09:57:46;;;;;;;1.80;1.25;;;22.50;1.40;;;23.87;58.02;95342.45;645500;212;31522;-74
2022/05/04 10:00:28;;;;;;;2.50;1.20;;;22.90;1.40;;;24.04;57.40;95345.22;645596;216;31554;-74
2022/05/04 10:03:09;;;;;;;2.05;1.50;;;23.30;1.40;;;26.00;53.10;95338.04;648117;216;31552;-74
2022/05/04 10:05:51;;;;;;;1.15;0.90;;;23.60;1.40;;;26.06;51.74;95340.66;620539;222;31890;-73
2022/05/04 10:08:38;;;;;;;1.87;1.20;;;23.60;1.40;;;25.58;51.12;95336.58;626359;222;31936;-74
2022/05/04 10:11:19;;;;;;;1.42;1.30;;;23.50;1.40;;;27.55;48.06;95329.37;646340;216;31618;-73
2022/05/04 10:14:05;;;;;;;1.50;1.40;;;25.90;1.40;;;27.86;50.76;95325.45;646449;216;31988;-74
2022/05/04 10:16:47;;;;;;;1.30;1.20;;;25.80;1.40;;;28.15;50.62;95321.72;646580;216;31608;-74
2022/05/04 10:19:37;;;;;;;1.70;1.60;;;24.80;1.40;;;29.10;50.16;95321.05;645562;216;31564;-74
2022/05/04 10:22:22;;;;;;;1.52;1.42;;;27.10;1.40;;;29.65;46.90;95319.91;647697;216;42258;-75
2022/05/04 10:27:40;;;;;;;1.27;1.17;;;24.40;1.40;;;27.24;48.00;95324.66;645542;216;31507;-73
2022/05/04 10:30:31;;;;;;;1.75;1.65;;;25.40;1.40;;;26.26;48.67;95318.50;647485;216;32222;-74
2022/05/04 10:35:51;;;;;;;1.65;1.55;;;26.50;1.40;;;30.53;41.65;95298.53;646538;212;31675;-74
2022/05/04 10:38:36;;;;;;;2.60;1.58;;;27.10;1.40;;;29.54;43.73;95299.28;646852;216;31543;-71
2022/05/04 10:41:17;;;;;;;1.60;1.50;;;25.60;1.40;;;29.38;41.51;95293.54;647611;216;31675;-72
2022/05/04 10:43:59;;;;;;;1.67;1.40;;;25.70;1.40;;;28.85;41.97;95289.67;645794;212;31694;-75
2022/05/04 10:46:41;;;;;;;1.52;1.27;;;24.90;1.40;;;28.33;41.07;95282.53;645826;216;31834;-74
2022/05/04 10:49:35;;;;;;;1.50;1.40;;;25.40;1.40;;;29.96;40.02;95282.69;645903;212;42338;-72
2022/05/04 10:52:20;;;;;;;1.50;1.40;;;25.30;1.40;;;28.09;41.91;95283.65;647639;212;42683;-72
2022/05/04 10:55:05;;;;;;;1.27;1.17;;;24.40;1.40;;;28.20;40.54;95279.12;646704;212;31759;-74
2022/05/04 10:57:47;;;;;;;1.15;1.05;;;25.10;1.40;;;28.37;38.09;95277.72;646677;216;42196;-74
2022/05/04 11:00:29;;;;;;;0.98;0.80;;;24.80;1.40;;;28.42;37.59;95276.09;646590;212;31498;-73
2022/05/04 11:03:10;;;;;;;0.80;0.70;;;24.00;1.40;;;27.27;35.26;95273.97;646278;212;31654;-74
2022/05/04 11:05:55;;;;;;;1.10;0.80;;;23.50;1.40;;;26.33;40.27;95273.92;646242;212;31682;-76
2022/05/04 11:08:43;;;;;;;0.70;0.50;;;24.30;1.40;;;27.83;35.04;95268.94;640730;212;31856;-74
2022/05/04 11:11:25;;;;;;;0.80;0.65;;;25.00;1.40;;;28.70;35.84;95259.33;646378;216;31531;-74
2022/05/04 11:14:06;;;;;;;0.90;0.80;;;25.30;1.40;;;30.08;35.56;95257.44;619584;225;31902;-74
2022/05/04 11:16:47;;;;;;;1.60;1.00;;;25.80;1.40;;;28.32;37.38;95258.41;645203;216;31516;-74
2022/05/04 11:19:29;;;;;;;0.88;0.80;;;24.50;1.40;;;27.53;33.19;95253.83;645802;215;31591;-74
2022/05/04 11:22:14;;;;;;;2.08;0.77;;;24.20;1.40;;;30.64;35.12;95244.98;645668;216;31524;-74
2022/05/04 11:24:55;;;;;;;0.82;0.82;;;25.40;1.40;;;28.82;36.10;95257.13;645394;216;31685;-75
2022/05/04 11:27:37;;;;;;;2.25;1.00;;;25.40;1.40;;;28.66;34.75;95253.14;645299;216;31599;-75
2022/05/04 11:30:19;;;;;;;2.22;1.00;;;24.40;1.40;;;26.90;36.33;95255.52;647299;216;32289;-75
2022/05/04 11:33:06;;;;;;;1.60;0.80;;;22.10;1.40;;;25.38;38.96;95258.67;646809;216;31671;-74
2022/05/04 11:35:54;;;;;;;2.15;0.70;;;21.00;1.40;;;23.54;45.01;95257.23;647510;216;31636;-74
2022/05/04 11:38:38;;;;;;;1.30;0.90;;;20.20;1.40;;;23.25;44.80;95261.27;630623;222;43241;-73
2022/05/04 11:41:20;;;;;;;1.37;0.90;;;20.10;1.40;;;22.97;44.17;95258.63;645933;212;31488;-74
2022/05/04 11:44:01;;;;;;;0.73;0.70;;;19.30;1.40;;;21.78;47.30;95255.98;646334;216;32022;-74
2022/05/04 11:46:43;;;;;;;0.85;0.70;;;19.30;1.40;;;21.59;50.83;95260.19;646144;216;31527;-74
2022/05/04 11:49:28;;;;;;;0.88;0.80;;;19.30;1.40;;;21.47;53.48;95269.44;617934;226;31989;-73
2022/05/04 11:52:10;;;;;;;1.08;0.80;;;19.20;1.40;;;21.76;50.12;95265.69;645638;212;31641;-73
2022/05/04 11:54:51;;;;;;;0.60;0.60;;;19.60;1.40;;;21.68;49.97;95265.28;615831;226;31920;-74
2022/05/04 11:57:39;;;;;;;2.15;1.00;;;19.30;1.40;;;21.46;51.79;95262.83;646376;216;31497;-74
2022/05/04 12:00:20;;;;;;;0.70;0.60;;;19.30;1.40;;;21.36;55.88;95263.19;646403;216;31513;-74
2022/05/04 12:03:02;;;;;;;2.00;1.00;;;19.00;1.40;;;20.46;57.81;95269.02;647570;212;31589;-73
2022/05/04 12:05:43;;;;;;;1.40;0.90;;;18.40;1.40;;;20.27;58.04;95267.53;646187;216;31487;-73
2022/05/04 12:08:25;;;;;;;1.10;0.98;;;18.20;1.40;;;20.19;63.49;95269.92;615433;226;31998;-73
2022/05/04 12:11:08;;;;;;;1.10;0.80;;;18.30;1.40;;;20.09;65.80;95266.75;645944;212;33435;-73
2022/05/04 12:13:49;;;;;;;0.70;0.70;;;18.10;1.40;;;19.72;68.86;95271.42;646753;216;31897;-73
2022/05/04 12:16:37;;;;;;;1.00;0.80;;;17.90;1.40;;;20.00;68.86;95266.55;648166;215;31556;-73
2022/05/04 12:19:18;;;;;;;2.87;0.90;;;18.10;1.40;;;20.02;67.34;95270.61;646748;216;32154;-73
2022/05/04 12:22:04;;;;;;;0.80;0.70;;;18.30;1.40;;;19.70;69.32;95267.48;646355;216;31504;-73
2022/05/04 12:24:42;;;;;;;1.15;0.90;;;18.20;1.40;;;19.78;71.21;95268.58;645758;212;31619;-73
2022/05/04 12:27:24;;;;;;;1.00;0.95;;;18.00;1.40;;;19.62;70.86;95265.84;646365;212;31899;-73
2022/05/04 12:35:54;;;;;;;1.47;1.00;;;18.00;1.40;;;19.17;79.73;95260.89;645755;212;31670;-73
2022/05/04 12:38:36;;;;;;;2.30;1.20;;;17.70;1.40;;;18.90;79.20;95258.93;647782;216;31550;-74
2022/05/04 12:41:18;;;;;;;1.48;1.08;;;17.80;1.40;;;19.39;77.91;95260.44;618604;222;31852;-74
2022/05/04 12:44:00;;;;;;;1.55;0.90;;;18.10;1.40;;;19.56;75.24;95253.30;646317;216;31569;-73
2022/05/04 12:46:52;;;;;;;1.17;0.80;;;18.00;1.40;;;19.56;72.76;95253.22;647554;216;31486;-73
2022/05/04 12:49:34;;;;;;;0.80;0.80;;;17.80;1.40;;;19.73;72.16;95235.44;647194;216;42127;-73
2022/05/04 12:52:16;;;;;;;1.20;0.98;;;18.00;1.40;;;20.20;71.41;95222.05;617993;226;31845;-74
2022/05/04 12:54:57;;;;;;;1.00;0.90;;;18.60;1.40;;;21.25;62.56;95209.21;646372;216;31571;-73